createdAt,value
2018-01-13T00:00:22.699Z,1028.33
2018-01-13T00:01:23.128Z,1028.35
2018-01-13T00:02:23.538Z,1028.29
2018-01-13T00:03:23.974Z,1028.34
2018-01-13T00:04:24.399Z,1028.34
2018-01-13T00:05:24.807Z,1028.33
2018-01-13T00:06:25.215Z,1028.31
2018-01-13T00:07:25.637Z,1028.30
2018-01-13T00:08:26.056Z,1028.29
2018-01-13T00:09:26.470Z,1028.34
2018-01-13T00:10:26.892Z,1028.33
2018-01-13T00:11:27.303Z,1028.31
2018-01-13T00:12:27.728Z,1028.34
2018-01-13T00:13:28.149Z,1028.28
2018-01-13T00:14:28.562Z,1028.28
2018-01-13T00:15:28.978Z,1028.30
2018-01-13T00:16:29.401Z,1028.30
2018-01-13T00:17:29.818Z,1028.33
2018-01-13T00:18:30.233Z,1028.32
2018-01-13T00:19:30.654Z,1028.36
2018-01-13T00:20:31.076Z,1028.39
2018-01-13T00:21:31.493Z,1028.36
2018-01-13T00:22:31.911Z,1028.34
2018-01-13T00:23:32.327Z,1028.37
2018-01-13T00:24:32.753Z,1028.34
2018-01-13T00:25:33.166Z,1028.34
2018-01-13T00:26:33.589Z,1028.36
2018-01-13T00:27:34.012Z,1028.34
2018-01-13T00:28:34.436Z,1028.32
2018-01-13T00:29:34.837Z,1028.35
2018-01-13T00:30:35.254Z,1028.37
2018-01-13T00:31:35.680Z,1028.35
2018-01-13T00:32:36.104Z,1028.37
2018-01-13T00:33:36.512Z,1028.36
2018-01-13T00:34:36.930Z,1028.39
2018-01-13T00:35:37.351Z,1028.47
2018-01-13T00:36:37.773Z,1028.46
2018-01-13T00:37:38.190Z,1028.45
2018-01-13T00:38:38.607Z,1028.42
2018-01-13T00:39:39.024Z,1028.43
2018-01-13T00:40:39.445Z,1028.43
2018-01-13T00:41:39.858Z,1028.41
2018-01-13T00:42:40.281Z,1028.44
2018-01-13T00:43:40.698Z,1028.45
2018-01-13T00:44:41.120Z,1028.47
2018-01-13T00:45:41.538Z,1028.45
2018-01-13T00:46:41.954Z,1028.49
2018-01-13T00:47:42.370Z,1028.50
2018-01-13T00:48:42.793Z,1028.52
2018-01-13T00:49:43.209Z,1028.55
2018-01-13T00:50:43.624Z,1028.57
2018-01-13T00:51:44.045Z,1028.54
2018-01-13T00:52:44.461Z,1028.54
2018-01-13T00:53:44.895Z,1028.53
2018-01-13T00:54:45.335Z,1028.56
2018-01-13T00:55:45.733Z,1028.54
2018-01-13T00:56:46.148Z,1028.58
2018-01-13T00:57:46.561Z,1028.58
2018-01-13T00:58:46.981Z,1028.58
2018-01-13T00:59:47.399Z,1028.57
2018-01-13T01:00:47.832Z,1028.52
2018-01-13T01:01:48.233Z,1028.57
2018-01-13T01:02:48.672Z,1028.59
2018-01-13T01:03:49.068Z,1028.64
2018-01-13T01:04:49.484Z,1028.66
2018-01-13T01:05:49.904Z,1028.62
2018-01-13T01:06:50.325Z,1028.61
2018-01-13T01:07:50.741Z,1028.61
2018-01-13T01:08:51.160Z,1028.56
2018-01-13T01:09:51.582Z,1028.66
2018-01-13T01:10:52.002Z,1028.66
2018-01-13T01:11:52.474Z,1028.62
2018-01-13T01:12:52.834Z,1028.64
2018-01-13T01:13:53.259Z,1028.64
2018-01-13T01:14:53.675Z,1028.67
2018-01-13T01:15:54.091Z,1028.65
2018-01-13T01:16:54.506Z,1028.62
2018-01-13T01:17:54.937Z,1028.66
2018-01-13T01:18:55.355Z,1028.62
2018-01-13T01:19:55.765Z,1028.66
2018-01-13T01:20:56.186Z,1028.70
2018-01-13T01:21:56.606Z,1028.67
2018-01-13T01:22:57.020Z,1028.70
2018-01-13T01:23:57.449Z,1028.66
2018-01-13T01:24:57.857Z,1028.70
2018-01-13T01:25:58.276Z,1028.73
2018-01-13T01:26:58.693Z,1028.70
2018-01-13T01:27:59.118Z,1028.71
2018-01-13T01:28:59.534Z,1028.68
2018-01-13T01:29:59.950Z,1028.72
2018-01-13T01:31:00.370Z,1028.74
2018-01-13T01:32:00.786Z,1028.70
2018-01-13T01:33:01.205Z,1028.71
2018-01-13T01:34:01.618Z,1028.66
2018-01-13T01:35:02.042Z,1028.71
2018-01-13T01:36:02.459Z,1028.69
2018-01-13T01:37:02.886Z,1028.68
2018-01-13T01:38:03.307Z,1028.71
2018-01-13T01:39:03.722Z,1028.68
2018-01-13T01:40:04.157Z,1028.67
2018-01-13T01:41:04.554Z,1028.68
2018-01-13T01:42:04.977Z,1028.70
2018-01-13T01:43:05.396Z,1028.72
2018-01-13T01:44:05.810Z,1028.72
2018-01-13T01:45:06.227Z,1028.71
2018-01-13T01:46:06.644Z,1028.69
2018-01-13T01:47:07.070Z,1028.74
2018-01-13T01:48:07.487Z,1028.73
2018-01-13T01:49:07.922Z,1028.74
2018-01-13T01:50:08.317Z,1028.72
2018-01-13T01:51:08.742Z,1028.74
2018-01-13T01:52:09.158Z,1028.75
2018-01-13T01:53:09.584Z,1028.72
2018-01-13T01:54:09.992Z,1028.76
2018-01-13T01:55:10.412Z,1028.76
2018-01-13T01:56:10.831Z,1028.74
2018-01-13T01:57:11.249Z,1028.74
2018-01-13T01:58:11.665Z,1028.79
2018-01-13T01:59:12.083Z,1028.77
2018-01-13T02:00:12.504Z,1028.73
2018-01-13T02:01:12.920Z,1028.71
2018-01-13T02:02:13.346Z,1028.73
2018-01-13T02:03:13.763Z,1028.69
2018-01-13T02:04:14.179Z,1028.71
2018-01-13T02:05:14.596Z,1028.69
2018-01-13T02:06:15.019Z,1028.68
2018-01-13T02:07:15.430Z,1028.67
2018-01-13T02:08:15.856Z,1028.69
2018-01-13T02:09:16.271Z,1028.67
2018-01-13T02:10:16.690Z,1028.68
2018-01-13T02:11:17.104Z,1028.65
2018-01-13T02:12:17.528Z,1028.65
2018-01-13T02:13:17.944Z,1028.70
2018-01-13T02:14:18.360Z,1028.70
2018-01-13T02:15:18.778Z,1028.71
2018-01-13T02:16:19.199Z,1028.66
2018-01-13T02:17:19.615Z,1028.65
2018-01-13T02:18:20.037Z,1028.65
2018-01-13T02:19:20.453Z,1028.64
2018-01-13T02:20:20.870Z,1028.65
2018-01-13T02:21:21.292Z,1028.61
2018-01-13T02:22:21.708Z,1028.61
2018-01-13T02:23:22.125Z,1028.64
2018-01-13T02:24:22.550Z,1028.65
2018-01-13T02:25:22.966Z,1028.60
2018-01-13T02:26:23.384Z,1028.62
2018-01-13T02:27:23.807Z,1028.63
2018-01-13T02:28:24.216Z,1028.60
2018-01-13T02:29:24.639Z,1028.63
2018-01-13T02:30:25.057Z,1028.56
2018-01-13T02:31:25.474Z,1028.60
2018-01-13T02:32:25.892Z,1028.55
2018-01-13T02:33:26.309Z,1028.61
2018-01-13T02:34:26.732Z,1028.58
2018-01-13T02:35:27.148Z,1028.57
2018-01-13T02:36:27.566Z,1028.51
2018-01-13T02:37:27.986Z,1028.56
2018-01-13T02:38:28.410Z,1028.58
2018-01-13T02:39:28.823Z,1028.56
2018-01-13T02:40:29.247Z,1028.58
2018-01-13T02:41:29.658Z,1028.56
2018-01-13T02:42:30.082Z,1028.60
2018-01-13T02:43:30.499Z,1028.60
2018-01-13T02:44:30.916Z,1028.62
2018-01-13T02:45:31.330Z,1028.60
2018-01-13T02:46:31.749Z,1028.58
2018-01-13T02:47:32.175Z,1028.61
2018-01-13T02:48:32.595Z,1028.65
2018-01-13T02:49:33.004Z,1028.59
2018-01-13T02:50:33.427Z,1028.59
2018-01-13T02:51:33.846Z,1028.61
2018-01-13T02:52:34.261Z,1028.62
2018-01-13T02:53:34.685Z,1028.63
2018-01-13T02:54:35.105Z,1028.60
2018-01-13T02:55:35.523Z,1028.59
2018-01-13T02:56:35.939Z,1028.61
2018-01-13T02:57:36.355Z,1028.61
2018-01-13T02:58:36.774Z,1028.62
2018-01-13T02:59:37.198Z,1028.64
2018-01-13T03:00:37.609Z,1028.64
2018-01-13T03:01:38.024Z,1028.60
2018-01-13T03:02:38.448Z,1028.58
2018-01-13T03:03:38.864Z,1028.62
2018-01-13T03:04:39.279Z,1028.61
2018-01-13T03:05:39.697Z,1028.57
2018-01-13T03:06:40.118Z,1028.57
2018-01-13T03:07:40.539Z,1028.61
2018-01-13T03:08:40.959Z,1028.57
2018-01-13T03:09:41.371Z,1028.59
2018-01-13T03:10:41.792Z,1028.59
2018-01-13T03:11:42.209Z,1028.56
2018-01-13T03:12:42.632Z,1028.58
2018-01-13T03:13:43.049Z,1028.54
2018-01-13T03:14:43.475Z,1028.55
2018-01-13T03:15:43.888Z,1028.54
2018-01-13T03:16:44.306Z,1028.56
2018-01-13T03:17:44.716Z,1028.57
2018-01-13T03:18:45.140Z,1028.58
2018-01-13T03:19:45.556Z,1028.57
2018-01-13T03:20:45.974Z,1028.60
2018-01-13T03:21:46.395Z,1028.56
2018-01-13T03:22:46.809Z,1028.61
2018-01-13T03:23:47.228Z,1028.62
2018-01-13T03:24:47.647Z,1028.59
2018-01-13T03:25:48.067Z,1028.52
2018-01-13T03:26:48.484Z,1028.55
2018-01-13T03:27:48.905Z,1028.54
2018-01-13T03:28:49.318Z,1028.52
2018-01-13T03:29:49.736Z,1028.57
2018-01-13T03:30:50.156Z,1028.57
2018-01-13T03:31:50.582Z,1028.56
2018-01-13T03:32:51.000Z,1028.57
2018-01-13T03:33:51.418Z,1028.54
2018-01-13T03:34:51.833Z,1028.57
2018-01-13T03:35:52.249Z,1028.59
2018-01-13T03:36:52.673Z,1028.58
2018-01-13T03:37:53.086Z,1028.64
2018-01-13T03:38:53.502Z,1028.60
2018-01-13T03:39:53.925Z,1028.54
2018-01-13T03:40:54.349Z,1028.59
2018-01-13T03:41:54.758Z,1028.62
2018-01-13T03:42:55.175Z,1028.61
2018-01-13T03:43:55.594Z,1028.59
2018-01-13T03:44:56.016Z,1028.59
2018-01-13T03:45:56.434Z,1028.59
2018-01-13T03:46:56.849Z,1028.57
2018-01-13T03:47:57.272Z,1028.55
2018-01-13T03:48:57.689Z,1028.58
2018-01-13T03:49:58.109Z,1028.57
2018-01-13T03:50:58.526Z,1028.55
2018-01-13T03:51:58.943Z,1028.61
2018-01-13T03:52:59.370Z,1028.54
2018-01-13T03:53:59.785Z,1028.54
2018-01-13T03:55:00.197Z,1028.54
2018-01-13T03:56:00.617Z,1028.56
2018-01-13T03:57:01.033Z,1028.57
2018-01-13T03:58:01.452Z,1028.56
2018-01-13T03:59:01.868Z,1028.55
2018-01-13T04:00:02.295Z,1028.54
2018-01-13T04:01:02.715Z,1028.57
2018-01-13T04:02:03.142Z,1028.56
2018-01-13T04:03:03.556Z,1028.54
2018-01-13T04:04:03.977Z,1028.52
2018-01-13T04:05:04.382Z,1028.54
2018-01-13T04:06:04.808Z,1028.55
2018-01-13T04:07:05.225Z,1028.54
2018-01-13T04:08:05.639Z,1028.61
2018-01-13T04:09:06.057Z,1028.53
2018-01-13T04:10:06.476Z,1028.53
2018-01-13T04:11:06.892Z,1028.58
2018-01-13T04:12:07.309Z,1028.58
2018-01-13T04:13:07.727Z,1028.57
2018-01-13T04:14:08.146Z,1028.60
2018-01-13T04:15:08.564Z,1028.60
2018-01-13T04:16:08.981Z,1028.57
2018-01-13T04:17:09.414Z,1028.64
2018-01-13T04:18:09.821Z,1028.56
2018-01-13T04:19:10.242Z,1028.57
2018-01-13T04:20:10.661Z,1028.53
2018-01-13T04:21:11.080Z,1028.57
2018-01-13T04:22:11.494Z,1028.57
2018-01-13T04:23:11.913Z,1028.56
2018-01-13T04:24:12.327Z,1028.50
2018-01-13T04:25:12.747Z,1028.49
2018-01-13T04:26:13.165Z,1028.52
2018-01-13T04:27:13.589Z,1028.51
2018-01-13T04:28:14.010Z,1028.43
2018-01-13T04:29:14.425Z,1028.44
2018-01-13T04:30:14.847Z,1028.48
2018-01-13T04:31:15.262Z,1028.47
2018-01-13T04:32:15.677Z,1028.43
2018-01-13T04:33:16.102Z,1028.47
2018-01-13T04:34:16.515Z,1028.44
2018-01-13T04:35:16.931Z,1028.45
2018-01-13T04:36:17.352Z,1028.46
2018-01-13T04:37:17.766Z,1028.45
2018-01-13T04:38:18.183Z,1028.40
2018-01-13T04:39:18.602Z,1028.42
2018-01-13T04:40:19.024Z,1028.41
2018-01-13T04:41:19.441Z,1028.44
2018-01-13T04:42:19.862Z,1028.47
2018-01-13T04:43:20.289Z,1028.47
2018-01-13T04:44:20.696Z,1028.44
2018-01-13T04:45:21.122Z,1028.45
2018-01-13T04:46:21.532Z,1028.46
2018-01-13T04:47:21.954Z,1028.48
2018-01-13T04:48:22.370Z,1028.46
2018-01-13T04:49:22.795Z,1028.47
2018-01-13T04:50:23.210Z,1028.47
2018-01-13T04:51:23.626Z,1028.50
2018-01-13T04:52:24.062Z,1028.44
2018-01-13T04:53:24.463Z,1028.50
2018-01-13T04:54:24.891Z,1028.48
2018-01-13T04:55:25.306Z,1028.49
2018-01-13T04:56:25.720Z,1028.48
2018-01-13T04:57:26.137Z,1028.49
2018-01-13T04:58:26.554Z,1028.51
2018-01-13T04:59:26.968Z,1028.53
2018-01-13T05:00:27.396Z,1028.54
2018-01-13T05:01:27.811Z,1028.51
2018-01-13T05:02:28.238Z,1028.52
2018-01-13T05:03:28.646Z,1028.54
2018-01-13T05:04:29.061Z,1028.48
2018-01-13T05:05:29.482Z,1028.54
2018-01-13T05:06:29.900Z,1028.56
2018-01-13T05:07:30.318Z,1028.61
2018-01-13T05:08:30.742Z,1028.58
2018-01-13T05:09:31.151Z,1028.63
2018-01-13T05:10:31.572Z,1028.65
2018-01-13T05:11:31.994Z,1028.66
2018-01-13T05:12:32.409Z,1028.65
2018-01-13T05:13:32.827Z,1028.63
2018-01-13T05:14:33.252Z,1028.65
2018-01-13T05:15:33.662Z,1028.66
2018-01-13T05:16:34.084Z,1028.61
2018-01-13T05:17:34.499Z,1028.65
2018-01-13T05:18:34.916Z,1028.65
2018-01-13T05:19:35.336Z,1028.65
2018-01-13T05:20:35.754Z,1028.65
2018-01-13T05:21:36.857Z,1028.63
2018-01-13T05:22:36.599Z,1028.64
2018-01-13T05:23:37.015Z,1028.60
2018-01-13T05:24:37.433Z,1028.63
2018-01-13T05:25:37.852Z,1028.64
2018-01-13T05:26:38.274Z,1028.59
2018-01-13T05:27:38.693Z,1028.66
2018-01-13T05:28:39.101Z,1028.56
2018-01-13T05:29:39.522Z,1028.59
2018-01-13T05:30:39.941Z,1028.59
2018-01-13T05:31:40.353Z,1028.58
2018-01-13T05:32:40.780Z,1028.57
2018-01-13T05:33:41.191Z,1028.61
2018-01-13T05:34:41.611Z,1028.60
2018-01-13T05:35:42.026Z,1028.59
2018-01-13T05:36:42.448Z,1028.60
2018-01-13T05:37:42.900Z,1028.59
2018-01-13T05:38:43.281Z,1028.57
2018-01-13T05:39:43.705Z,1028.61
2018-01-13T05:40:44.117Z,1028.66
2018-01-13T05:41:44.541Z,1028.64
2018-01-13T05:42:44.967Z,1028.67
2018-01-13T05:43:45.383Z,1028.67
2018-01-13T05:44:45.795Z,1028.71
2018-01-13T05:45:46.217Z,1028.69
2018-01-13T05:46:46.626Z,1028.67
2018-01-13T05:47:47.048Z,1028.64
2018-01-13T05:48:47.464Z,1028.68
2018-01-13T05:49:47.881Z,1028.65
2018-01-13T05:50:48.300Z,1028.63
2018-01-13T05:51:48.723Z,1028.59
2018-01-13T05:52:49.141Z,1028.61
2018-01-13T05:53:49.554Z,1028.63
2018-01-13T05:54:49.974Z,1028.67
2018-01-13T05:55:50.392Z,1028.71
2018-01-13T05:56:50.813Z,1028.70
2018-01-13T05:57:51.229Z,1028.69
2018-01-13T05:58:51.645Z,1028.71
2018-01-13T05:59:52.075Z,1028.71
2018-01-13T06:00:52.496Z,1028.71
2018-01-13T06:01:52.920Z,1028.69
2018-01-13T06:02:53.323Z,1028.67
2018-01-13T06:03:53.740Z,1028.71
2018-01-13T06:04:54.159Z,1028.67
2018-01-13T06:05:54.574Z,1028.69
2018-01-13T06:06:54.991Z,1028.74
2018-01-13T06:07:55.407Z,1028.68
2018-01-13T06:08:55.826Z,1028.64
2018-01-13T06:09:56.246Z,1028.64
2018-01-13T06:10:56.664Z,1028.68
2018-01-13T06:11:57.087Z,1028.64
2018-01-13T06:12:57.513Z,1028.67
2018-01-13T06:13:57.918Z,1028.59
2018-01-13T06:14:58.336Z,1028.67
2018-01-13T06:15:58.753Z,1028.75
2018-01-13T06:16:59.173Z,1028.68
2018-01-13T06:17:59.590Z,1028.68
2018-01-13T06:19:00.012Z,1028.68
2018-01-13T06:20:00.423Z,1028.73
2018-01-13T06:21:00.842Z,1028.69
2018-01-13T06:22:01.263Z,1028.68
2018-01-13T06:23:01.690Z,1028.70
2018-01-13T06:24:02.148Z,1028.68
2018-01-13T06:25:02.526Z,1028.68
2018-01-13T06:26:02.943Z,1028.66
2018-01-13T06:27:03.356Z,1028.65
2018-01-13T06:28:03.771Z,1028.61
2018-01-13T06:29:04.188Z,1028.63
2018-01-13T06:30:04.610Z,1028.61
2018-01-13T06:31:05.023Z,1028.63
2018-01-13T06:32:05.440Z,1028.57
2018-01-13T06:33:05.861Z,1028.61
2018-01-13T06:34:06.277Z,1028.60
2018-01-13T06:35:06.707Z,1028.60
2018-01-13T06:36:07.130Z,1028.59
2018-01-13T06:37:07.543Z,1028.59
2018-01-13T06:38:07.973Z,1028.57
2018-01-13T06:39:08.376Z,1028.64
2018-01-13T06:40:08.795Z,1028.63
2018-01-13T06:41:09.208Z,1028.64
2018-01-13T06:42:09.625Z,1028.65
2018-01-13T06:43:10.044Z,1028.63
2018-01-13T06:44:10.460Z,1028.63
2018-01-13T06:45:10.882Z,1028.65
2018-01-13T06:46:11.295Z,1028.64
2018-01-13T06:47:11.720Z,1028.62
2018-01-13T06:48:12.136Z,1028.66
2018-01-13T06:49:12.553Z,1028.63
2018-01-13T06:50:12.970Z,1028.65
2018-01-13T06:51:13.389Z,1028.68
2018-01-13T06:52:13.808Z,1028.71
2018-01-13T06:53:14.225Z,1028.68
2018-01-13T06:54:14.642Z,1028.79
2018-01-13T06:55:15.070Z,1028.76
2018-01-13T06:56:15.484Z,1028.73
2018-01-13T06:57:15.904Z,1028.76
2018-01-13T06:58:16.317Z,1028.77
2018-01-13T06:59:16.735Z,1028.76
2018-01-13T07:00:17.150Z,1028.82
2018-01-13T07:01:17.570Z,1028.78
2018-01-13T07:02:17.989Z,1028.79
2018-01-13T07:03:18.405Z,1028.74
2018-01-13T07:04:18.831Z,1028.80
2018-01-13T07:05:19.246Z,1028.84
2018-01-13T07:06:19.662Z,1028.79
2018-01-13T07:07:20.077Z,1028.85
2018-01-13T07:08:20.497Z,1028.83
2018-01-13T07:09:20.967Z,1028.86
2018-01-13T07:10:21.342Z,1028.85
2018-01-13T07:11:21.753Z,1028.87
2018-01-13T07:12:22.175Z,1028.91
2018-01-13T07:13:22.588Z,1028.89
2018-01-13T07:14:23.007Z,1028.89
2018-01-13T07:15:23.482Z,1028.91
2018-01-13T07:16:23.849Z,1028.91
2018-01-13T07:17:24.264Z,1028.93
2018-01-13T07:18:24.680Z,1028.90
2018-01-13T07:19:25.099Z,1028.85
2018-01-13T07:20:25.526Z,1028.88
2018-01-13T07:21:25.946Z,1028.95
2018-01-13T07:22:26.353Z,1028.91
2018-01-13T07:23:26.804Z,1028.89
2018-01-13T07:24:27.186Z,1028.93
2018-01-13T07:25:27.624Z,1028.96
2018-01-13T07:26:28.025Z,1028.92
2018-01-13T07:27:28.458Z,1028.96
2018-01-13T07:28:28.862Z,1028.97
2018-01-13T07:29:29.301Z,1028.94
2018-01-13T07:30:29.705Z,1028.91
2018-01-13T07:31:30.119Z,1028.94
2018-01-13T07:32:30.535Z,1028.93
2018-01-13T07:33:30.955Z,1028.93
2018-01-13T07:34:31.372Z,1028.98
2018-01-13T07:35:31.790Z,1028.96
2018-01-13T07:36:32.205Z,1028.95
2018-01-13T07:37:32.622Z,1028.93
2018-01-13T07:38:33.038Z,1028.89
2018-01-13T07:39:33.456Z,1028.94
2018-01-13T07:40:33.874Z,1028.95
2018-01-13T07:41:34.291Z,1028.97
2018-01-13T07:42:34.710Z,1028.94
2018-01-13T07:43:35.127Z,1028.93
2018-01-13T07:44:35.549Z,1028.96
2018-01-13T07:45:35.967Z,1028.95
2018-01-13T07:46:36.383Z,1028.96
2018-01-13T07:47:36.802Z,1028.96
2018-01-13T07:48:37.216Z,1028.90
2018-01-13T07:49:37.638Z,1028.92
2018-01-13T07:50:38.054Z,1028.86
2018-01-13T07:51:38.473Z,1028.89
2018-01-13T07:52:38.928Z,1028.88
2018-01-13T07:53:39.314Z,1028.94
2018-01-13T07:54:39.726Z,1028.86
2018-01-13T07:55:40.146Z,1028.90
2018-01-13T07:56:40.563Z,1028.92
2018-01-13T07:57:40.981Z,1028.89
2018-01-13T07:58:41.398Z,1028.89
2018-01-13T07:59:41.816Z,1028.86
2018-01-13T08:00:42.239Z,1028.90
2018-01-13T08:01:42.652Z,1028.89
2018-01-13T08:02:43.070Z,1028.86
2018-01-13T08:03:43.487Z,1028.90
2018-01-13T08:04:43.906Z,1028.90
2018-01-13T08:05:44.346Z,1028.93
2018-01-13T08:08:17.884Z,1028.95
2018-01-13T08:09:18.260Z,1028.90
2018-01-13T08:11:13.836Z,1028.93
2018-01-13T08:12:14.230Z,1028.95
2018-01-13T08:14:08.799Z,1028.95
2018-01-13T08:15:09.225Z,1029.01
2018-01-13T08:17:03.814Z,1029.05
2018-01-13T08:18:04.228Z,1029.04
2018-01-13T08:19:04.624Z,1029.00
2018-01-13T08:20:05.061Z,1029.02
2018-01-13T08:21:05.491Z,1029.05
2018-01-13T08:22:05.896Z,1029.07
2018-01-13T08:23:06.311Z,1029.06
2018-01-13T08:24:06.727Z,1029.05
2018-01-13T08:25:07.135Z,1029.08
2018-01-13T08:26:07.553Z,1029.09
2018-01-13T08:27:07.972Z,1029.06
2018-01-13T08:28:08.438Z,1029.04
2018-01-13T08:29:08.804Z,1029.09
2018-01-13T08:30:09.221Z,1029.13
2018-01-13T08:31:09.636Z,1029.16
2018-01-13T08:32:10.056Z,1029.09
2018-01-13T08:33:10.473Z,1029.17
2018-01-13T08:35:51.962Z,1029.13
2018-01-13T08:36:52.405Z,1029.19
2018-01-13T08:38:49.225Z,1029.17
2018-01-13T08:46:37.402Z,1029.27
2018-01-13T08:47:37.718Z,1029.25
2018-01-13T08:48:38.121Z,1029.20
2018-01-13T08:49:38.540Z,1029.31
2018-01-13T08:50:38.972Z,1029.30
2018-01-13T08:51:39.370Z,1029.18
2018-01-13T08:52:39.778Z,1029.29
2018-01-13T08:53:40.197Z,1029.26
2018-01-13T08:54:40.621Z,1029.31
2018-01-13T08:55:41.037Z,1029.23
2018-01-13T08:56:41.448Z,1029.37
2018-01-13T08:57:41.864Z,1029.34
2018-01-13T08:58:42.283Z,1029.30
2018-01-13T08:59:42.704Z,1029.35
2018-01-13T09:00:43.131Z,1029.26
2018-01-13T09:01:43.537Z,1029.31
2018-01-13T09:02:43.955Z,1029.24
2018-01-13T09:03:44.409Z,1029.37
2018-01-13T09:06:28.298Z,1029.39
2018-01-13T09:07:28.699Z,1029.29
2018-01-13T09:09:23.289Z,1029.30
2018-01-13T09:10:23.694Z,1029.32
2018-01-13T09:12:18.291Z,1029.27
2018-01-13T09:13:18.692Z,1029.34
2018-01-13T09:15:14.249Z,1029.40
2018-01-13T09:16:14.671Z,1029.44
2018-01-13T09:18:09.276Z,1029.36
2018-01-13T09:19:09.676Z,1029.44
2018-01-13T09:21:04.243Z,1029.38
2018-01-13T09:22:04.657Z,1029.32
2018-01-13T09:23:59.252Z,1029.37
2018-01-13T09:24:59.659Z,1029.38
2018-01-13T09:26:54.232Z,1029.45
2018-01-13T09:27:54.654Z,1029.38
2018-01-13T09:29:49.241Z,1029.45
2018-01-13T09:30:49.667Z,1029.46
2018-01-13T09:32:44.230Z,1029.49
2018-01-13T09:33:44.693Z,1029.45
2018-01-13T09:35:39.238Z,1029.45
2018-01-13T09:36:39.627Z,1029.45
2018-01-13T09:38:34.216Z,1029.44
2018-01-13T09:39:34.620Z,1029.44
2018-01-13T09:41:29.198Z,1029.41
2018-01-13T09:42:29.617Z,1029.47
2018-01-13T09:44:24.237Z,1029.42
2018-01-13T09:45:24.642Z,1029.43
2018-01-13T09:46:25.046Z,1029.47
2018-01-13T09:47:25.441Z,1029.42
2018-01-13T09:48:25.856Z,1029.49
2018-01-13T09:49:26.283Z,1029.53
2018-01-13T09:50:26.698Z,1029.50
2018-01-13T09:51:27.113Z,1029.44
2018-01-13T09:52:27.540Z,1029.49
2018-01-13T09:53:27.956Z,1029.50
2018-01-13T09:54:28.375Z,1029.45
2018-01-13T09:55:28.789Z,1029.46
2018-01-13T09:56:29.219Z,1029.42
2018-01-13T09:57:29.622Z,1029.49
2018-01-13T09:58:30.044Z,1029.43
2018-01-13T09:59:30.469Z,1029.45
2018-01-13T10:00:30.883Z,1029.48
2018-01-13T10:01:31.304Z,1029.42
2018-01-13T10:02:31.718Z,1029.46
2018-01-13T10:03:32.135Z,1029.42
2018-01-13T10:04:32.555Z,1029.49
2018-01-13T10:05:32.972Z,1029.45
2018-01-13T10:06:33.394Z,1029.49
2018-01-13T10:07:33.814Z,1029.40
2018-01-13T10:08:34.228Z,1029.44
2018-01-13T10:09:34.643Z,1029.42
2018-01-13T10:10:35.060Z,1029.46
2018-01-13T10:11:35.482Z,1029.42
2018-01-13T10:12:35.898Z,1029.37
2018-01-13T10:13:36.329Z,1029.39
2018-01-13T10:14:36.739Z,1029.36
2018-01-13T10:15:37.154Z,1029.35
2018-01-13T10:16:37.576Z,1029.38
2018-01-13T10:17:38.009Z,1029.35
2018-01-13T10:18:38.425Z,1029.34
2018-01-13T10:19:38.879Z,1029.35
2018-01-13T10:20:39.260Z,1029.36
2018-01-13T10:21:39.681Z,1029.34
2018-01-13T10:22:40.097Z,1029.32
2018-01-13T10:23:40.515Z,1029.36
2018-01-13T10:24:40.936Z,1029.37
2018-01-13T10:25:41.362Z,1029.39
2018-01-13T10:26:41.765Z,1029.41
2018-01-13T10:27:42.188Z,1029.41
2018-01-13T10:28:42.626Z,1029.36
2018-01-13T10:29:43.023Z,1029.40
2018-01-13T10:30:43.442Z,1029.33
2018-01-13T10:31:43.878Z,1029.33
2018-01-13T10:32:44.288Z,1029.37
2018-01-13T10:33:44.710Z,1029.29
2018-01-13T10:34:45.129Z,1029.35
2018-01-13T10:35:45.541Z,1029.32
2018-01-13T10:36:45.970Z,1029.35
2018-01-13T10:37:46.385Z,1029.33
2018-01-13T10:38:46.793Z,1029.30
2018-01-13T10:39:47.217Z,1029.29
2018-01-13T10:40:47.636Z,1029.37
2018-01-13T10:41:48.063Z,1029.32
2018-01-13T10:42:48.484Z,1029.31
2018-01-13T10:43:48.904Z,1029.29
2018-01-13T10:44:49.336Z,1029.28
2018-01-13T10:45:49.736Z,1029.31
2018-01-13T10:46:50.149Z,1029.25
2018-01-13T10:47:50.567Z,1029.25
2018-01-13T10:48:50.983Z,1029.23
2018-01-13T10:49:51.403Z,1029.25
2018-01-13T10:50:51.837Z,1029.27
2018-01-13T10:51:52.233Z,1029.30
2018-01-13T10:52:52.652Z,1029.26
2018-01-13T10:53:53.092Z,1029.28
2018-01-13T10:54:53.494Z,1029.24
2018-01-13T10:55:53.910Z,1029.26
2018-01-13T10:56:54.327Z,1029.30
2018-01-13T10:57:54.756Z,1029.27
2018-01-13T10:58:55.163Z,1029.27
2018-01-13T10:59:55.583Z,1029.31
2018-01-13T11:00:56.005Z,1029.21
2018-01-13T11:01:56.503Z,1029.23
2018-01-13T11:02:56.832Z,1029.24
2018-01-13T11:03:57.264Z,1029.23
2018-01-13T11:04:57.679Z,1029.19
2018-01-13T11:05:58.103Z,1029.19
2018-01-13T11:06:58.523Z,1029.17
2018-01-13T11:07:58.939Z,1029.18
2018-01-13T11:08:59.351Z,1029.15
2018-01-13T11:09:59.778Z,1029.17
2018-01-13T11:11:00.199Z,1029.17
2018-01-13T11:12:00.640Z,1029.13
2018-01-13T11:13:01.041Z,1029.10
2018-01-13T11:14:01.455Z,1029.10
2018-01-13T11:15:01.872Z,1029.10
2018-01-13T11:16:02.266Z,1029.08
2018-01-13T11:17:56.875Z,1029.03
2018-01-13T11:18:57.272Z,1029.03
2018-01-13T11:20:52.830Z,1029.05
2018-01-13T11:21:53.248Z,1029.02
2018-01-13T11:23:47.827Z,1028.99
2018-01-13T11:24:48.268Z,1028.97
2018-01-13T11:26:43.858Z,1029.01
2018-01-13T11:27:44.230Z,1028.96
2018-01-13T11:29:38.859Z,1029.00
2018-01-13T11:30:39.232Z,1028.96
2018-01-13T11:32:33.824Z,1028.97
2018-01-13T11:33:34.249Z,1029.03
2018-01-13T11:35:28.857Z,1028.97
2018-01-13T11:36:29.267Z,1028.97
2018-01-13T11:38:25.039Z,1028.95
2018-01-13T11:39:25.217Z,1028.95
2018-01-13T11:41:19.882Z,1028.90
2018-01-13T11:42:20.290Z,1028.87
2018-01-13T11:44:14.837Z,1028.82
2018-01-13T11:45:15.256Z,1028.89
2018-01-13T11:47:09.881Z,1028.90
2018-01-13T11:48:10.255Z,1028.84
2018-01-13T11:50:04.890Z,1028.82
2018-01-13T11:51:05.274Z,1028.87
2018-01-13T11:53:00.835Z,1028.83
2018-01-13T11:54:01.256Z,1028.83
2018-01-13T11:55:55.872Z,1028.84
2018-01-13T11:56:56.278Z,1028.88
2018-01-13T11:58:50.807Z,1028.80
2018-01-13T11:59:51.237Z,1028.82
2018-01-13T12:01:45.846Z,1028.84
2018-01-13T12:02:46.226Z,1028.81
2018-01-13T12:04:40.804Z,1028.82
2018-01-13T12:05:41.265Z,1028.80
2018-01-13T12:07:35.842Z,1028.84
2018-01-13T12:08:36.202Z,1028.79
2018-01-13T12:10:30.809Z,1028.85
2018-01-13T12:11:31.202Z,1028.82
2018-01-13T12:13:26.763Z,1028.79
2018-01-13T12:14:27.163Z,1028.79
2018-01-13T12:16:21.800Z,1028.85
2018-01-13T12:17:22.170Z,1028.80
2018-01-13T12:19:17.983Z,1028.79
2018-01-13T12:20:18.147Z,1028.85
2018-01-13T12:22:12.771Z,1028.74
2018-01-13T12:23:13.131Z,1028.77
2018-01-13T12:25:07.712Z,1028.79
2018-01-13T12:26:08.134Z,1028.74
2018-01-13T12:28:02.737Z,1028.76
2018-01-13T12:29:03.135Z,1028.82
2018-01-13T12:30:57.687Z,1028.78
2018-01-13T12:31:58.127Z,1028.73
2018-01-13T12:33:52.708Z,1028.74
2018-01-13T12:34:53.098Z,1028.67
2018-01-13T12:36:48.705Z,1028.68
2018-01-13T12:37:49.066Z,1028.67
2018-01-13T12:39:43.630Z,1028.71
2018-01-13T12:40:44.062Z,1028.72
2018-01-13T12:42:38.674Z,1028.72
2018-01-13T12:43:39.047Z,1028.68
2018-01-13T12:45:33.631Z,1028.68
2018-01-13T12:46:34.038Z,1028.69
2018-01-13T12:48:28.631Z,1028.63
2018-01-13T12:49:29.022Z,1028.59
2018-01-13T12:51:23.591Z,1028.59
2018-01-13T12:52:24.018Z,1028.59
2018-01-13T12:54:18.628Z,1028.57
2018-01-13T12:55:19.017Z,1028.58
2018-01-13T12:57:13.583Z,1028.55
2018-01-13T12:58:13.999Z,1028.51
2018-01-13T13:00:08.576Z,1028.53
2018-01-13T13:01:08.975Z,1028.51
2018-01-13T13:03:03.555Z,1028.49
2018-01-13T13:04:03.967Z,1028.47
2018-01-13T13:05:04.384Z,1028.43
2018-01-13T13:06:04.808Z,1028.49
2018-01-13T13:07:05.226Z,1028.44
2018-01-13T13:08:05.642Z,1028.39
2018-01-13T13:09:06.066Z,1028.37
2018-01-13T13:10:06.476Z,1028.39
2018-01-13T13:11:06.922Z,1028.38